createdAt,value
2023-03-07T00:00:36.574Z,1.60
2023-03-07T00:05:40.264Z,1.60
2023-03-07T00:10:44.591Z,1.50
2023-03-07T00:15:51.867Z,1.50
2023-03-07T00:20:59.327Z,1.50
2023-03-07T00:26:05.926Z,1.40
2023-03-07T00:31:12.378Z,1.40
2023-03-07T00:36:18.019Z,1.40
2023-03-07T00:41:30.331Z,1.40
2023-03-07T00:46:37.707Z,1.40
2023-03-07T00:51:40.906Z,1.40
2023-03-07T00:56:44.211Z,1.40
2023-03-07T01:01:49.928Z,1.40
2023-03-07T01:06:55.200Z,1.40
2023-03-07T01:11:58.358Z,1.40
2023-03-07T01:17:04.045Z,1.50
2023-03-07T01:22:16.199Z,1.60
2023-03-07T01:27:22.650Z,1.60
2023-03-07T01:32:27.310Z,1.60
2023-03-07T01:37:32.748Z,1.70
2023-03-07T01:42:36.229Z,1.70
2023-03-07T01:47:41.273Z,1.70
2023-03-07T01:52:47.475Z,1.70
2023-03-07T01:57:53.023Z,1.60
2023-03-07T02:03:10.096Z,1.70
2023-03-07T02:08:16.322Z,1.60
2023-03-07T02:13:20.677Z,1.80
2023-03-07T02:18:31.859Z,1.70
2023-03-07T02:23:45.163Z,1.80
2023-03-07T02:28:52.529Z,1.70
2023-03-07T02:33:55.695Z,1.70
2023-03-07T02:39:00.463Z,1.80
2023-03-07T02:44:05.244Z,1.80
2023-03-07T02:49:14.433Z,1.70
2023-03-07T02:54:25.275Z,1.60
2023-03-07T02:59:29.867Z,1.50
2023-03-07T03:04:34.417Z,1.30
2023-03-07T03:09:38.761Z,1.20
2023-03-07T03:14:43.372Z,1.00
2023-03-07T03:19:47.672Z,0.90
2023-03-07T03:24:53.010Z,0.80
2023-03-07T03:29:57.750Z,0.70
2023-03-07T03:35:01.043Z,0.60
2023-03-07T03:40:05.573Z,0.70
2023-03-07T03:45:12.189Z,0.70
2023-03-07T03:50:16.509Z,0.80
2023-03-07T03:55:19.889Z,1.20
2023-03-07T04:00:24.723Z,1.30
2023-03-07T04:05:27.972Z,1.40
2023-03-07T04:10:31.326Z,1.50
2023-03-07T04:15:37.241Z,1.50
2023-03-07T04:20:40.596Z,1.40
2023-03-07T04:25:51.219Z,1.50
2023-03-07T04:30:57.411Z,1.50
2023-03-07T04:36:01.958Z,1.50
2023-03-07T04:41:06.732Z,1.40
2023-03-07T04:46:18.109Z,1.40
2023-03-07T04:51:23.670Z,1.40
2023-03-07T04:56:32.857Z,1.50
2023-03-07T05:01:39.661Z,1.50
2023-03-07T05:06:42.958Z,1.50
2023-03-07T05:11:46.314Z,1.60
2023-03-07T05:16:51.734Z,1.60
2023-03-07T05:21:58.972Z,1.70
2023-03-07T05:27:03.442Z,1.60
2023-03-07T05:32:08.495Z,1.70
2023-03-07T05:37:11.880Z,1.60
2023-03-07T05:42:16.491Z,1.50
2023-03-07T05:47:27.267Z,1.50
2023-03-07T05:52:30.997Z,1.50
2023-03-07T05:57:36.404Z,1.50
2023-03-07T06:02:41.821Z,1.50
2023-03-07T06:07:45.281Z,1.60
2023-03-07T06:12:51.400Z,1.60
2023-03-07T06:18:11.174Z,1.60
2023-03-07T06:23:15.414Z,1.70
2023-03-07T06:28:20.677Z,1.70
2023-03-07T06:33:30.133Z,1.80
2023-03-07T06:38:33.417Z,1.80
2023-03-07T06:43:37.262Z,2.00
2023-03-07T06:48:41.878Z,2.10
2023-03-07T06:53:46.248Z,2.30
2023-03-07T06:58:49.523Z,2.50
2023-03-07T07:03:55.096Z,2.80
2023-03-07T07:09:01.780Z,3.00
2023-03-07T07:14:05.088Z,3.10
2023-03-07T07:19:10.224Z,3.10
2023-03-07T07:24:13.911Z,3.40
2023-03-07T07:29:17.223Z,4.10
2023-03-07T07:34:22.845Z,5.70
2023-03-07T07:39:28.212Z,6.70
2023-03-07T07:44:31.581Z,6.70
2023-03-07T07:49:36.695Z,6.00
2023-03-07T07:55:08.673Z,5.60
2023-03-07T08:00:18.108Z,5.50
2023-03-07T08:05:25.281Z,5.50
2023-03-07T08:10:28.601Z,5.90
2023-03-07T08:15:33.380Z,5.80
2023-03-07T08:20:38.482Z,6.50
2023-03-07T08:25:46.341Z,6.80
2023-03-07T08:30:49.647Z,7.30
2023-03-07T08:35:55.243Z,6.70
2023-03-07T08:41:02.066Z,6.60
2023-03-07T08:46:07.327Z,6.30
2023-03-07T08:51:20.110Z,6.80
2023-03-07T08:56:23.459Z,7.00
2023-03-07T09:01:27.345Z,6.40
2023-03-07T09:06:35.212Z,6.20
2023-03-07T09:11:38.638Z,5.60
2023-03-07T09:16:44.276Z,5.00
2023-03-07T09:21:50.216Z,5.10
2023-03-07T09:26:57.856Z,5.10
2023-03-07T09:32:04.084Z,5.00
2023-03-07T09:37:11.731Z,5.10
2023-03-07T09:42:24.654Z,5.20
2023-03-07T09:47:52.846Z,5.50
2023-03-07T09:53:05.491Z,5.40
2023-03-07T09:58:16.113Z,5.20
2023-03-07T10:03:30.051Z,5.20
2023-03-07T10:08:35.731Z,5.20
2023-03-07T10:13:51.988Z,5.40
2023-03-07T10:19:06.778Z,5.40
2023-03-07T10:24:37.197Z,5.50
2023-03-07T10:29:47.602Z,5.40
2023-03-07T10:34:59.310Z,5.30
2023-03-07T10:40:05.129Z,5.20
2023-03-07T10:45:13.071Z,5.50
2023-03-07T10:50:40.219Z,5.50
2023-03-07T10:55:46.818Z,5.60
2023-03-07T11:01:07.130Z,5.70
2023-03-07T11:06:30.301Z,5.60
2023-03-07T11:11:35.002Z,5.60
2023-03-07T11:16:44.766Z,6.10
2023-03-07T11:21:55.263Z,6.50
2023-03-07T11:27:01.333Z,6.90
2023-03-07T11:32:16.425Z,6.80
2023-03-07T11:37:32.212Z,7.10
2023-03-07T11:42:43.957Z,8.00
2023-03-07T11:47:58.509Z,9.10
2023-03-07T11:53:49.940Z,8.80
2023-03-07T11:59:30.069Z,8.90
2023-03-07T12:05:01.056Z,7.60
2023-03-07T12:10:14.955Z,7.60
2023-03-07T12:15:35.423Z,7.00
2023-03-07T12:20:48.875Z,7.40
2023-03-07T12:25:57.453Z,7.80
2023-03-07T12:31:12.441Z,6.90
2023-03-07T12:36:24.842Z,7.00
2023-03-07T12:41:42.479Z,7.70
2023-03-07T12:46:52.768Z,7.20
2023-03-07T12:52:02.706Z,6.70
2023-03-07T12:57:12.435Z,7.40
2023-03-07T13:02:26.480Z,7.60
2023-03-07T13:07:32.554Z,7.70
2023-03-07T13:18:06.218Z,7.20
2023-03-07T13:23:29.823Z,7.20
2023-03-07T13:28:53.965Z,6.80
2023-03-07T13:34:18.889Z,6.60
2023-03-07T13:40:01.212Z,6.70
2023-03-07T13:45:51.021Z,6.70
2023-03-07T13:51:12.401Z,7.70
2023-03-07T13:56:28.576Z,8.00
2023-03-07T14:01:37.000Z,8.00
2023-03-07T14:06:48.591Z,8.00
2023-03-07T14:11:58.651Z,7.90
2023-03-07T14:17:16.580Z,7.90
2023-03-07T14:22:34.734Z,7.80
2023-03-07T14:27:56.407Z,7.90
2023-03-07T14:33:00.190Z,7.80
2023-03-07T14:38:09.103Z,7.40
2023-03-07T14:43:27.732Z,7.30
2023-03-07T14:48:57.613Z,6.90
2023-03-07T14:54:07.213Z,6.80
2023-03-07T14:59:25.886Z,6.90
2023-03-07T15:04:35.953Z,7.50
2023-03-07T15:09:41.019Z,7.40
2023-03-07T15:14:48.713Z,7.50
2023-03-07T15:19:59.379Z,7.60
2023-03-07T15:25:04.767Z,7.40
2023-03-07T15:30:28.925Z,6.90
2023-03-07T15:35:32.522Z,6.40
2023-03-07T15:40:38.830Z,6.10
2023-03-07T15:45:44.535Z,6.10
2023-03-07T15:50:53.536Z,6.30
2023-03-07T15:56:00.212Z,6.80
2023-03-07T16:01:17.041Z,7.10
2023-03-07T16:06:42.759Z,7.10
2023-03-07T16:11:48.593Z,7.00
2023-03-07T16:16:55.321Z,6.70
2023-03-07T16:21:59.041Z,6.40
2023-03-07T16:27:07.001Z,6.20
2023-03-07T16:32:15.602Z,6.10
2023-03-07T16:37:20.985Z,5.90
2023-03-07T16:42:26.422Z,5.70
2023-03-07T16:47:32.128Z,5.50
2023-03-07T16:52:35.821Z,5.20
2023-03-07T16:57:41.113Z,4.90
2023-03-07T17:02:44.991Z,4.60
2023-03-07T17:07:51.781Z,4.20
2023-03-07T17:12:58.563Z,3.80
2023-03-07T17:18:08.664Z,3.40
2023-03-07T17:23:13.109Z,3.20
2023-03-07T17:28:20.270Z,3.10
2023-03-07T17:33:25.267Z,3.00
2023-03-07T17:38:29.563Z,2.90
2023-03-07T17:43:34.513Z,2.90
2023-03-07T17:48:37.871Z,3.00
2023-03-07T17:53:44.278Z,3.10
2023-03-07T17:58:50.016Z,3.20
2023-03-07T18:03:53.338Z,3.30
2023-03-07T18:08:57.627Z,3.30
2023-03-07T18:14:03.035Z,3.20
2023-03-07T18:19:24.018Z,3.10
2023-03-07T18:24:30.286Z,2.90
2023-03-07T18:29:35.448Z,2.80
2023-03-07T18:34:40.207Z,2.90
2023-03-07T18:39:46.896Z,2.80
2023-03-07T18:44:52.194Z,2.90
2023-03-07T18:49:57.816Z,3.10
2023-03-07T18:55:02.388Z,3.10
2023-03-07T19:00:11.595Z,3.00
2023-03-07T19:05:23.598Z,3.00
2023-03-07T19:10:27.271Z,2.80
2023-03-07T19:15:33.286Z,2.50
2023-03-07T19:20:43.154Z,2.30
2023-03-07T19:25:47.854Z,2.40
2023-03-07T19:30:54.174Z,2.20
2023-03-07T19:36:11.191Z,2.20
2023-03-07T19:41:20.500Z,2.10
2023-03-07T19:46:26.865Z,2.00
2023-03-07T19:51:31.716Z,2.00
2023-03-07T19:56:35.115Z,2.00
2023-03-07T20:01:40.045Z,2.30
2023-03-07T20:06:46.330Z,2.30
2023-03-07T20:11:55.781Z,2.40
2023-03-07T20:17:00.650Z,2.50
2023-03-07T20:22:05.759Z,2.40
2023-03-07T20:27:10.915Z,2.30
2023-03-07T20:32:17.553Z,2.10
2023-03-07T20:37:23.641Z,1.90
2023-03-07T20:42:27.009Z,1.90
2023-03-07T20:47:33.188Z,2.00
2023-03-07T20:52:41.947Z,2.00
2023-03-07T20:57:49.790Z,2.00
2023-03-07T21:03:05.452Z,2.20
2023-03-07T21:08:10.038Z,2.00
2023-03-07T21:13:13.425Z,2.00
2023-03-07T21:18:18.109Z,2.00
2023-03-07T21:23:21.686Z,1.90
2023-03-07T21:28:25.148Z,2.10
2023-03-07T21:33:30.488Z,2.10
2023-03-07T21:38:35.797Z,2.10
2023-03-07T21:43:41.115Z,2.00
2023-03-07T21:48:45.997Z,2.30
2023-03-07T21:53:49.883Z,2.40
2023-03-07T21:58:54.703Z,2.40
2023-03-07T22:04:01.265Z,2.40
2023-03-07T22:09:06.117Z,2.30
2023-03-07T22:14:09.882Z,2.10
2023-03-07T22:19:14.644Z,2.10
2023-03-07T22:24:18.171Z,2.30
2023-03-07T22:29:21.558Z,2.30
2023-03-07T22:34:26.478Z,2.40
2023-03-07T22:39:30.007Z,2.40
2023-03-07T22:44:33.610Z,2.40
2023-03-07T22:49:38.242Z,2.50
2023-03-07T22:54:44.029Z,2.50
2023-03-07T22:59:49.322Z,2.60
2023-03-07T23:04:54.464Z,2.50
2023-03-07T23:09:58.169Z,2.40
2023-03-07T23:15:09.397Z,2.40
2023-03-07T23:20:15.139Z,2.30
2023-03-07T23:25:18.552Z,2.30
2023-03-07T23:30:22.995Z,2.30
2023-03-07T23:35:28.556Z,2.30
2023-03-07T23:40:32.107Z,2.30
2023-03-07T23:45:36.769Z,2.40
2023-03-07T23:50:41.638Z,2.40
2023-03-07T23:55:45.132Z,2.30
